Time;durP1;ratioP1;P1;durP2;ratioP2;P2;SDS_P1;SDS_P2;PMS_P1;PMS_P2;Temp;Humidity;BMP_temperature;BMP_pressure;BME280_temperature;BME280_humidity;BME280_pressure;Samples;Min_cycle;Max_cycle;Signal;HPM_P1;HPM_P2
2022/07/09 00:00:07;;;;;;;0.40;0.20;;;;;;;16.78;89.23;101391.44;5020117;28;20453;-80
2022/07/09 00:02:34;;;;;;;0.40;0.20;;;;;;;16.72;89.86;101386.28;5027159;28;20475;-80
2022/07/09 00:05:01;;;;;;;0.40;0.20;;;;;;;17.11;88.07;101391.09;5017570;28;20989;-79
2022/07/09 00:07:32;;;;;;;0.40;0.20;;;;;;;16.98;88.26;101388.00;5026347;28;20511;-79
2022/07/09 00:09:58;;;;;;;0.40;0.20;;;;;;;17.06;87.59;101383.22;5029153;28;20467;-80
2022/07/09 00:12:25;;;;;;;0.40;0.30;;;;;;;17.12;87.42;101387.47;5017382;28;20474;-79
2022/07/09 00:14:51;;;;;;;0.40;0.20;;;;;;;16.99;88.08;101381.69;5029175;28;20508;-80
2022/07/09 00:17:18;;;;;;;0.40;0.20;;;;;;;16.92;88.33;101379.31;5015947;28;20454;-79
2022/07/09 00:19:44;;;;;;;0.40;0.20;;;;;;;16.68;89.40;101375.69;5028981;28;20452;-80
2022/07/09 00:22:11;;;;;;;0.40;0.20;;;;;;;16.63;89.60;101374.97;5026663;28;20440;-80
2022/07/09 00:24:38;;;;;;;0.40;0.20;;;;;;;16.87;88.64;101385.72;5037327;28;20468;-80
2022/07/09 00:27:04;;;;;;;0.40;0.20;;;;;;;16.61;89.07;101377.72;5049726;28;20522;-80
2022/07/09 00:29:31;;;;;;;0.40;0.20;;;;;;;16.52;89.33;101368.16;5037922;28;20539;-80
2022/07/09 00:31:57;;;;;;;0.40;0.20;;;;;;;16.43;90.08;101376.53;5023965;28;20470;-80
2022/07/09 00:34:24;;;;;;;0.40;0.20;;;;;;;16.32;90.59;101377.88;5029800;28;20475;-79
2022/07/09 00:36:50;;;;;;;0.40;0.20;;;;;;;16.34;90.85;101374.19;5016508;28;20838;-80
2022/07/09 00:39:17;;;;;;;0.40;0.20;;;;;;;16.22;90.82;101364.75;5027684;28;20503;-80
2022/07/09 00:41:43;;;;;;;0.40;0.20;;;;;;;16.21;91.28;101370.19;5026639;28;20909;-79
2022/07/09 00:44:10;;;;;;;0.60;0.50;;;;;;;16.16;90.86;101348.88;5020427;28;20523;-80
2022/07/09 00:46:36;;;;;;;0.40;0.20;;;;;;;16.13;91.88;101367.75;5023968;28;20452;-79
2022/07/09 00:49:05;;;;;;;0.40;0.20;;;;;;;16.19;91.61;101364.00;5019301;28;20491;-80
2022/07/09 00:51:32;;;;;;;0.40;0.20;;;;;;;16.22;91.55;101370.13;5022114;28;20453;-80
2022/07/09 00:53:59;;;;;;;0.40;0.20;;;;;;;16.13;91.77;101364.19;5027381;28;20524;-80
2022/07/09 00:56:29;;;;;;;0.40;0.20;;;;;;;15.96;92.85;101376.38;5021098;28;20886;-79
2022/07/09 00:58:56;;;;;;;0.40;0.20;;;;;;;15.95;93.52;101369.25;5026913;28;20563;-79
2022/07/09 01:01:22;;;;;;;0.40;0.20;;;;;;;15.95;93.22;101366.59;5023844;28;20460;-80
2022/07/09 01:03:49;;;;;;;0.40;0.20;;;;;;;16.08;92.49;101360.81;5029048;28;20456;-80
2022/07/09 01:06:15;;;;;;;0.40;0.20;;;;;;;16.05;92.52;101363.59;5022676;28;20476;-80
2022/07/09 01:08:42;;;;;;;0.40;0.20;;;;;;;15.88;91.86;101335.53;5027709;28;20455;-80
2022/07/09 01:11:08;;;;;;;0.40;0.20;;;;;;;16.05;92.32;101344.81;5016583;28;20460;-79
2022/07/09 01:13:35;;;;;;;0.40;0.20;;;;;;;16.03;92.05;101355.56;5028710;28;20959;-79
2022/07/09 01:16:01;;;;;;;0.40;0.20;;;;;;;15.92;92.18;101364.00;5026032;28;20479;-79
2022/07/09 01:18:28;;;;;;;0.40;0.20;;;;;;;16.04;92.03;101352.00;5027482;28;21026;-80
2022/07/09 01:20:55;;;;;;;0.40;0.20;;;;;;;15.93;92.38;101349.66;5027131;28;20484;-80
2022/07/09 01:23:21;;;;;;;0.40;0.20;;;;;;;15.84;92.18;101359.81;5015929;28;20815;-80
2022/07/09 01:25:48;;;;;;;0.40;0.20;;;;;;;15.84;92.08;101352.66;5014205;28;20482;-79
2022/07/09 01:28:14;;;;;;;0.40;0.20;;;;;;;15.67;92.77;101342.50;5020536;28;20448;-79
2022/07/09 01:30:41;;;;;;;0.40;0.20;;;;;;;15.60;93.75;101345.41;5021098;28;20615;-80
2022/07/09 01:33:08;;;;;;;0.40;0.20;;;;;;;15.72;93.45;101354.84;5028836;28;20580;-79
2022/07/09 01:35:34;;;;;;;0.40;0.20;;;;;;;15.66;93.26;101348.78;5015081;23;20505;-54
2022/07/09 01:38:01;;;;;;;0.40;0.20;;;;;;;15.73;93.16;101351.25;4974960;28;20494;-52
2022/07/09 01:40:27;;;;;;;0.40;0.20;;;;;;;15.62;93.46;101347.13;4967337;28;20450;-51
2022/07/09 01:42:54;;;;;;;0.40;0.20;;;;;;;15.36;93.97;101345.25;4954689;28;20455;-51
2022/07/09 01:45:20;;;;;;;0.40;0.20;;;;;;;15.38;94.52;101342.53;4968012;28;20447;-51
2022/07/09 01:47:47;;;;;;;0.40;0.20;;;;;;;15.27;94.99;101350.00;4967652;28;20521;-52
2022/07/09 01:50:13;;;;;;;0.40;0.20;;;;;;;15.37;94.65;101349.69;4967221;28;20956;-51
2022/07/09 01:52:40;;;;;;;0.40;0.20;;;;;;;15.39;94.74;101341.59;4954691;28;20482;-51
2022/07/09 01:55:07;;;;;;;0.40;0.20;;;;;;;15.30;94.83;101347.22;4972032;28;20541;-52
2022/07/09 01:57:33;;;;;;;0.40;0.20;;;;;;;15.25;94.92;101349.19;4965293;28;20557;-53
2022/07/09 02:00:00;;;;;;;0.40;0.20;;;;;;;15.32;94.59;101338.22;4968713;28;20486;-52
2022/07/09 02:02:27;;;;;;;0.40;0.20;;;;;;;15.17;94.99;101338.69;4966139;28;20455;-52
2022/07/09 02:04:54;;;;;;;0.40;0.20;;;;;;;15.37;94.76;101343.44;4967307;28;20458;-52
2022/07/09 02:07:21;;;;;;;0.40;0.20;;;;;;;15.23;95.18;101337.63;4966082;28;20477;-52
2022/07/09 02:09:49;;;;;;;0.40;0.20;;;;;;;15.19;95.04;101338.63;4973095;28;20446;-51
2022/07/09 02:12:16;;;;;;;0.40;0.20;;;;;;;15.11;95.53;101337.09;4973207;28;20460;-52
2022/07/09 02:14:43;;;;;;;0.40;0.20;;;;;;;15.20;95.87;101337.72;4973631;28;20532;-51
2022/07/09 02:17:10;;;;;;;0.40;0.20;;;;;;;14.85;95.98;101339.66;4964418;28;21004;-52
2022/07/09 02:19:37;;;;;;;0.40;0.20;;;;;;;14.88;97.40;101334.22;4966899;28;20486;-51
2022/07/09 02:22:03;;;;;;;0.40;0.20;;;;;;;14.84;97.85;101327.19;4962920;28;20451;-51
2022/07/09 02:24:30;;;;;;;0.40;0.20;;;;;;;14.90;97.52;101332.38;4973205;28;20462;-52
2022/07/09 02:26:56;;;;;;;0.40;0.20;;;;;;;14.78;98.19;101324.69;4972857;28;20462;-52
2022/07/09 02:29:23;;;;;;;0.40;0.20;;;;;;;14.68;98.04;101323.22;4960239;28;20482;-52
2022/07/09 02:31:49;;;;;;;0.40;0.20;;;;;;;14.62;98.75;101326.06;4973169;28;20451;-52
2022/07/09 02:34:16;;;;;;;0.70;0.70;;;;;;;14.65;98.64;101321.50;4970524;28;20459;-52
2022/07/09 02:36:42;;;;;;;0.40;0.20;;;;;;;14.73;98.56;101330.19;4962580;28;20468;-51
2022/07/09 02:39:09;;;;;;;0.40;0.20;;;;;;;14.64;98.78;101325.09;4959985;28;20521;-51
2022/07/09 02:41:36;;;;;;;0.40;0.20;;;;;;;14.70;99.21;101322.25;4973430;28;20450;-53
2022/07/09 02:44:02;;;;;;;0.40;0.20;;;;;;;14.79;97.97;101332.66;4973017;28;20958;-51
2022/07/09 02:46:28;;;;;;;0.40;0.20;;;;;;;14.90;97.68;101327.00;4972504;28;20450;-51
2022/07/09 02:48:57;;;;;;;0.40;0.20;;;;;;;14.95;98.44;101334.94;4960191;28;20470;-52
2022/07/09 02:51:23;;;;;;;0.40;0.20;;;;;;;15.00;96.93;101328.50;4972910;28;20450;-52
2022/07/09 02:53:50;;;;;;;0.40;0.20;;;;;;;14.83;98.17;101322.78;4963732;28;20457;-52
2022/07/09 02:56:16;;;;;;;0.40;0.20;;;;;;;14.87;98.03;101326.22;4979378;28;20457;-53
2022/07/09 02:58:42;;;;;;;0.40;0.20;;;;;;;14.57;99.27;101323.53;4972949;28;20502;-52
2022/07/09 03:01:09;;;;;;;0.40;0.20;;;;;;;14.55;99.17;101324.50;4973354;28;20450;-52
2022/07/09 03:03:36;;;;;;;0.40;0.20;;;;;;;14.67;98.68;101325.03;4959901;28;20451;-53
2022/07/09 03:06:03;;;;;;;0.40;0.20;;;;;;;14.61;98.82;101322.50;4967797;28;20481;-52
2022/07/09 03:08:30;;;;;;;0.40;0.20;;;;;;;14.73;98.42;101319.47;4968895;28;20550;-52
2022/07/09 03:10:56;;;;;;;0.40;0.20;;;;;;;14.65;99.15;101315.25;4964049;28;20947;-53
2022/07/09 03:13:23;;;;;;;0.40;0.20;;;;;;;14.59;99.37;101320.81;4973059;28;20526;-52
2022/07/09 03:15:50;;;;;;;0.40;0.20;;;;;;;14.48;99.75;101318.41;4972264;28;20901;-53
2022/07/09 03:18:16;;;;;;;0.40;0.20;;;;;;;14.51;99.31;101321.00;4968254;28;21000;-51
2022/07/09 03:20:43;;;;;;;0.40;0.20;;;;;;;14.55;98.91;101314.66;4955088;28;20463;-52
2022/07/09 03:23:12;;;;;;;0.40;0.20;;;;;;;14.67;98.62;101318.78;4974841;28;20832;-53
2022/07/09 03:25:39;;;;;;;0.40;0.20;;;;;;;14.66;99.31;101314.34;4976115;28;20458;-52
2022/07/09 03:28:05;;;;;;;0.40;0.20;;;;;;;14.45;99.85;101306.03;4963304;28;20486;-53
2022/07/09 03:30:32;;;;;;;0.40;0.20;;;;;;;14.52;99.13;101307.59;4976335;28;20527;-53
2022/07/09 03:32:58;;;;;;;0.40;0.20;;;;;;;14.43;100.00;101307.81;4976725;28;20564;-52
2022/07/09 03:35:25;;;;;;;0.40;0.20;;;;;;;14.39;100.00;101308.84;4964979;28;20979;-51
2022/07/09 03:37:51;;;;;;;0.40;0.20;;;;;;;14.35;100.00;101303.59;4969704;28;20490;-53
2022/07/09 03:40:18;;;;;;;0.40;0.20;;;;;;;14.41;100.00;101307.00;4975618;28;20494;-53
2022/07/09 03:42:44;;;;;;;0.40;0.20;;;;;;;14.26;100.00;101318.13;4976122;28;20474;-53
2022/07/09 03:45:11;;;;;;;0.40;0.20;;;;;;;14.20;100.00;101311.13;4976375;28;20456;-52
2022/07/09 03:47:37;;;;;;;0.40;0.20;;;;;;;14.27;100.00;101309.19;4970110;28;20837;-53
2022/07/09 03:50:04;;;;;;;0.40;0.20;;;;;;;14.43;100.00;101309.63;4975887;28;20924;-52
2022/07/09 03:52:31;;;;;;;0.40;0.20;;;;;;;14.49;100.00;101307.69;4975855;28;20924;-51
2022/07/09 03:54:57;;;;;;;0.40;0.20;;;;;;;14.49;100.00;101312.16;4988744;28;20572;-53
2022/07/09 03:57:24;;;;;;;0.40;0.20;;;;;;;14.61;99.52;101318.97;4967232;28;20996;-52
2022/07/09 03:59:50;;;;;;;0.40;0.20;;;;;;;14.38;100.00;101323.09;4969152;28;20490;-53
2022/07/09 04:02:17;;;;;;;0.40;0.20;;;;;;;14.36;100.00;101319.59;4969385;28;20835;-53
2022/07/09 04:04:43;;;;;;;0.40;0.20;;;;;;;14.38;100.00;101314.22;4969153;28;20458;-53
2022/07/09 04:07:10;;;;;;;0.40;0.20;;;;;;;14.46;100.00;101314.91;4970792;28;20561;-53
2022/07/09 04:09:37;;;;;;;0.40;0.20;;;;;;;14.63;100.00;101317.09;4975240;28;20959;-52
2022/07/09 04:12:03;;;;;;;0.40;0.20;;;;;;;14.77;99.65;101315.78;4975558;28;20461;-53
2022/07/09 04:14:30;;;;;;;0.40;0.20;;;;;;;14.87;99.75;101323.56;4975577;28;20450;-52
2022/07/09 04:16:56;;;;;;;0.40;0.20;;;;;;;15.06;99.01;101322.06;4968274;28;20948;-53
2022/07/09 04:19:23;;;;;;;0.40;0.20;;;;;;;15.10;98.27;101313.91;4968835;28;20497;-53
2022/07/09 04:21:49;;;;;;;0.40;0.20;;;;;;;15.07;99.19;101321.13;4962558;28;20476;-53
2022/07/09 04:24:16;;;;;;;0.37;0.20;;;;;;;15.19;99.01;101310.06;4975475;28;20466;-51
2022/07/09 04:26:43;;;;;;;0.40;0.20;;;;;;;15.14;99.18;101311.13;4968262;28;20463;-52
2022/07/09 04:29:10;;;;;;;0.30;0.20;;;;;;;15.22;99.69;101307.31;4969559;28;20451;-52
2022/07/09 04:31:37;;;;;;;0.37;0.20;;;;;;;15.29;99.06;101314.19;4974999;28;20461;-52
2022/07/09 04:34:03;;;;;;;0.40;0.20;;;;;;;15.30;99.42;101312.41;4974364;28;20804;-53
2022/07/09 04:36:31;;;;;;;0.40;0.20;;;;;;;15.71;98.13;101313.78;4963800;28;20990;-52
2022/07/09 04:38:58;;;;;;;0.30;0.20;;;;;;;15.96;96.82;101312.00;4975325;28;20498;-52
2022/07/09 04:41:24;;;;;;;0.40;0.20;;;;;;;16.11;96.48;101307.91;4974782;28;20454;-52
2022/07/09 04:43:51;;;;;;;0.40;0.30;;;;;;;16.16;96.15;101314.00;4970473;28;20461;-52
2022/07/09 04:46:17;;;;;;;0.40;0.20;;;;;;;16.56;94.62;101310.75;4974969;28;20457;-53
2022/07/09 04:48:44;;;;;;;0.40;0.20;;;;;;;16.56;94.18;101308.06;4973223;28;20502;-53
2022/07/09 04:51:10;;;;;;;0.40;0.20;;;;;;;16.71;92.60;101319.19;4975794;28;20461;-53
2022/07/09 04:53:37;;;;;;;0.40;0.20;;;;;;;16.61;93.58;101315.97;4963085;28;20455;-53
2022/07/09 04:56:06;;;;;;;0.40;0.20;;;;;;;16.53;94.01;101326.97;4975266;28;20454;-53
2022/07/09 04:58:34;;;;;;;0.40;0.20;;;;;;;16.72;92.99;101316.47;4973628;28;20478;-53
2022/07/09 05:01:01;;;;;;;0.40;0.20;;;;;;;16.62;92.99;101306.09;4978108;28;20825;-52
2022/07/09 05:03:27;;;;;;;0.40;0.20;;;;;;;16.70;92.70;101314.75;4961809;28;20550;-53
2022/07/09 05:05:54;;;;;;;0.40;0.20;;;;;;;16.63;92.85;101318.59;4970796;28;20482;-53
2022/07/09 05:08:21;;;;;;;0.40;0.20;;;;;;;16.66;94.03;101308.59;4974671;28;20474;-52
2022/07/09 05:10:47;;;;;;;0.40;0.20;;;;;;;16.80;92.68;101310.81;4974597;28;20958;-53
2022/07/09 05:13:14;;;;;;;0.40;0.20;;;;;;;16.98;92.21;101310.09;4974550;28;20459;-52
2022/07/09 05:15:40;;;;;;;0.40;0.20;;;;;;;17.13;91.87;101298.78;4974113;28;21747;-53
2022/07/09 05:18:06;;;;;;;0.40;0.20;;;;;;;17.40;90.87;101302.13;4973846;28;20841;-53
2022/07/09 05:20:33;;;;;;;0.40;0.20;;;;;;;17.53;90.08;101296.25;4975199;28;20581;-53
2022/07/09 05:23:00;;;;;;;0.40;0.20;;;;;;;17.60;89.69;101297.78;4974433;28;20450;-53
2022/07/09 05:25:26;;;;;;;0.40;0.20;;;;;;;17.86;89.17;101294.91;4974067;28;20462;-52
2022/07/09 05:27:53;;;;;;;0.40;0.20;;;;;;;18.28;87.09;101292.16;4961328;28;20485;-52
2022/07/09 05:30:19;;;;;;;0.40;0.20;;;;;;;18.91;84.14;101294.69;4964002;28;20455;-52
2022/07/09 05:32:46;;;;;;;0.40;0.20;;;;;;;19.27;82.37;101294.75;4971799;28;20468;-53
2022/07/09 05:35:13;;;;;;;0.40;0.20;;;;;;;19.78;80.80;101294.03;4963472;28;20815;-52
2022/07/09 05:37:43;;;;;;;0.40;0.20;;;;;;;20.09;79.79;101293.34;4972428;28;20482;-53
2022/07/09 05:40:11;;;;;;;0.40;0.20;;;;;;;20.29;77.92;101297.69;4974187;28;20544;-54
2022/07/09 05:42:39;;;;;;;0.77;0.77;;;;;;;20.46;77.22;101299.53;4974090;28;20828;-53
2022/07/09 05:45:06;;;;;;;0.40;0.20;;;;;;;20.41;77.20;101298.84;4971689;28;20806;-53
2022/07/09 05:47:33;;;;;;;0.40;0.20;;;;;;;20.60;76.06;101294.25;4964932;28;20475;-53
2022/07/09 05:49:59;;;;;;;0.40;0.30;;;;;;;21.04;74.59;101290.06;4974186;28;20461;-54
2022/07/09 05:52:25;;;;;;;0.40;0.20;;;;;;;21.11;74.17;101292.34;4973142;28;20461;-53
2022/07/09 05:54:52;;;;;;;0.40;0.20;;;;;;;21.11;74.27;101289.63;4976678;28;20948;-53
2022/07/09 05:57:18;;;;;;;0.40;0.20;;;;;;;21.75;71.71;101291.34;4973649;28;20473;-53
2022/07/09 05:59:45;;;;;;;0.40;0.20;;;;;;;21.75;72.28;101293.19;4964767;28;20491;-54
2022/07/09 06:02:11;;;;;;;0.40;0.20;;;;;;;22.15;70.72;101291.69;4967583;28;20463;-53
2022/07/09 06:04:38;;;;;;;0.40;0.20;;;;;;;22.03;70.82;101296.00;4966323;28;20460;-53
2022/07/09 06:07:05;;;;;;;0.40;0.30;;;;;;;21.86;71.28;101301.53;4961045;28;20477;-52
2022/07/09 06:09:31;;;;;;;0.40;0.20;;;;;;;21.83;71.54;101294.47;4973409;28;20560;-53
2022/07/09 06:11:58;;;;;;;0.40;0.20;;;;;;;22.29;69.92;101296.28;4969889;28;20557;-52
2022/07/09 06:14:25;;;;;;;0.40;0.20;;;;;;;22.27;69.01;101301.78;4973871;28;20465;-53
2022/07/09 06:16:55;;;;;;;0.40;0.20;;;;;;;22.04;70.81;101291.44;4970352;28;20459;-53
2022/07/09 06:19:23;;;;;;;0.40;0.30;;;;;;;22.33;69.99;101293.28;4969939;28;20531;-53
2022/07/09 06:21:53;;;;;;;0.40;0.20;;;;;;;22.70;68.78;101305.41;4954669;28;20971;-53
2022/07/09 06:24:19;;;;;;;0.40;0.20;;;;;;;22.18;69.87;101296.94;4956522;28;20466;-53
2022/07/09 06:26:46;;;;;;;0.40;0.20;;;;;;;22.16;70.45;101293.44;4973275;28;20500;-53
2022/07/09 06:29:13;;;;;;;0.40;0.20;;;;;;;22.32;70.23;101293.38;4973150;28;20529;-52
2022/07/09 06:31:40;;;;;;;0.40;0.20;;;;;;;22.71;69.55;101307.16;4969985;28;20463;-52
2022/07/09 06:34:06;;;;;;;0.40;0.20;;;;;;;22.86;69.14;101302.63;4966490;28;20455;-53
2022/07/09 06:36:33;;;;;;;0.40;0.20;;;;;;;22.78;68.38;101304.94;4972816;28;20534;-52
2022/07/09 06:41:46;;;;;;;0.40;0.20;;;;;;;23.33;66.84;101309.56;4957530;28;20960;-52
2022/07/09 06:44:12;;;;;;;0.40;0.20;;;;;;;22.80;68.22;101307.56;4963345;28;20809;-52
2022/07/09 06:46:39;;;;;;;0.40;0.20;;;;;;;23.06;68.03;101306.81;4958098;28;20455;-52
2022/07/09 06:49:05;;;;;;;0.40;0.20;;;;;;;;;;4966936;28;20478;-53
2022/07/09 06:51:32;;;;;;;0.40;0.20;;;;;;;23.31;67.38;101297.94;4972867;28;20458;-53
2022/07/09 06:53:59;;;;;;;0.40;0.20;;;;;;;23.57;66.47;101301.63;4975528;28;20461;-53
2022/07/09 06:56:26;;;;;;;0.40;0.20;;;;;;;23.61;66.54;101304.09;4974775;28;20480;-53
2022/07/09 06:58:52;;;;;;;0.40;0.20;;;;;;;23.63;66.51;101296.69;4976552;28;20893;-52
2022/07/09 07:01:19;;;;;;;0.40;0.30;;;;;;;24.04;65.11;101301.16;4968476;28;20486;-52
2022/07/09 07:03:45;;;;;;;0.40;0.20;;;;;;;23.94;65.25;101303.63;4976289;28;20493;-52
2022/07/09 07:06:12;;;;;;;0.80;0.80;;;;;;;23.64;65.14;101290.28;4965756;28;20455;-53
2022/07/09 07:08:38;;;;;;;0.40;0.20;;;;;;;24.43;63.75;101300.28;4973500;28;20828;-52
2022/07/09 07:11:04;;;;;;;0.40;0.20;;;;;;;24.34;62.93;101298.19;4976416;28;20450;-53
2022/07/09 07:13:31;;;;;;;0.40;0.20;;;;;;;24.43;64.08;101307.56;4969096;28;20466;-53
2022/07/09 07:15:58;;;;;;;0.40;0.20;;;;;;;24.23;63.96;101300.75;4969385;28;20457;-53
2022/07/09 07:18:24;;;;;;;0.40;0.20;;;;;;;24.43;64.38;101300.28;4976418;28;21258;-53
2022/07/09 07:20:51;;;;;;;0.40;0.20;;;;;;;24.72;62.69;101295.50;4964021;28;20625;-53
2022/07/09 07:23:17;;;;;;;0.40;0.20;;;;;;;24.20;64.08;101295.53;4976075;28;20516;-53
2022/07/09 07:25:44;;;;;;;0.40;0.20;;;;;;;24.34;64.66;101291.91;4976670;28;20464;-53
2022/07/09 07:28:10;;;;;;;0.40;0.20;;;;;;;24.57;63.83;101293.00;4973983;28;20477;-53
2022/07/09 07:30:37;;;;;;;0.40;0.20;;;;;;;24.51;62.69;101295.16;4975987;28;20538;-52
2022/07/09 07:33:03;;;;;;;0.40;0.20;;;;;;;25.00;62.53;101288.06;4976177;28;20773;-53
2022/07/09 07:35:30;;;;;;;0.50;0.40;;;;;;;25.01;61.79;101292.56;4964390;28;20561;-53
2022/07/09 07:38:02;;;;;;;0.40;0.20;;;;;;;24.75;63.09;101278.94;4975444;28;20482;-53
2022/07/09 07:40:28;;;;;;;0.40;0.20;;;;;;;24.96;63.22;101283.81;4975835;28;20494;-53
2022/07/09 07:42:55;;;;;;;0.40;0.20;;;;;;;25.27;61.27;101277.03;4976333;28;20454;-54
2022/07/09 07:45:21;;;;;;;0.40;0.20;;;;;;;24.42;63.77;101286.81;4976006;28;20541;-53
2022/07/09 07:47:48;;;;;;;0.40;0.20;;;;;;;24.94;62.94;101270.31;4971552;28;20582;-53
2022/07/09 07:50:14;;;;;;;0.40;0.20;;;;;;;24.77;62.65;101282.41;4975134;28;20450;-53
2022/07/09 07:52:41;;;;;;;0.40;0.20;;;;;;;25.06;62.99;101279.47;4972218;28;20865;-53
2022/07/09 07:55:13;;;;;;;0.40;0.20;;;;;;;24.78;62.47;101273.28;4984662;28;20979;-54
2022/07/09 07:57:39;;;;;;;0.40;0.20;;;;;;;24.95;62.49;101269.34;4964533;28;20485;-52
2022/07/09 08:00:06;;;;;;;0.40;0.20;;;;;;;25.11;62.04;101263.69;4974742;28;20490;-52
2022/07/09 08:02:34;;;;;;;0.40;0.20;;;;;;;25.62;60.49;101258.88;4967702;28;20463;-53
2022/07/09 08:05:01;;;;;;;0.40;0.20;;;;;;;25.58;59.79;101265.56;4969505;28;20450;-53
2022/07/09 08:07:27;;;;;;;0.40;0.20;;;;;;;25.06;61.05;101264.00;4964567;28;20471;-53
2022/07/09 08:09:54;;;;;;;0.40;0.20;;;;;;;25.66;58.50;101254.97;4975831;28;20459;-53
2022/07/09 08:12:20;;;;;;;0.40;0.20;;;;;;;25.98;58.65;101259.81;4975882;28;20474;-53
2022/07/09 08:14:47;;;;;;;0.40;0.20;;;;;;;26.07;58.66;101248.22;4975666;28;20800;-54
2022/07/09 08:17:13;;;;;;;0.40;0.20;;;;;;;25.93;58.16;101252.00;4975266;28;20480;-54
2022/07/09 08:19:39;;;;;;;0.40;0.30;;;;;;;25.72;58.98;101250.91;4975197;28;20994;-53
2022/07/09 08:22:06;;;;;;;0.40;0.20;;;;;;;26.40;57.01;101252.88;4975543;28;20454;-54
2022/07/09 08:24:32;;;;;;;0.40;0.20;;;;;;;26.31;56.36;101245.38;4975317;28;20465;-53
2022/07/09 08:26:59;;;;;;;0.40;0.20;;;;;;;26.11;57.53;101249.69;4975912;28;20458;-54
2022/07/09 08:29:25;;;;;;;0.40;0.20;;;;;;;26.40;57.52;101243.81;4975607;28;20488;-54
2022/07/09 08:31:52;;;;;;;0.40;0.20;;;;;;;26.70;55.36;101243.22;4975319;28;20461;-54
2022/07/09 08:34:18;;;;;;;0.40;0.20;;;;;;;26.57;55.83;101238.75;4972975;28;20505;-53
2022/07/09 08:36:45;;;;;;;0.40;0.20;;;;;;;26.04;56.16;101240.28;4964716;28;20462;-54
2022/07/09 08:39:12;;;;;;;0.40;0.20;;;;;;;25.96;57.07;101238.13;4975492;28;20455;-54
2022/07/09 08:41:38;;;;;;;0.40;0.20;;;;;;;25.95;57.65;101236.41;4975024;28;20490;-54
2022/07/09 08:44:10;;;;;;;0.40;0.20;;;;;;;26.05;57.43;101242.00;4975287;28;20463;-55
2022/07/09 08:46:37;;;;;;;0.40;0.20;;;;;;;25.54;58.69;101242.28;4975165;28;20451;-54
2022/07/09 08:49:07;;;;;;;0.40;0.30;;;;;;;24.96;59.79;101245.75;4975114;28;20446;-55
2022/07/09 08:51:35;;;;;;;0.40;0.20;;;;;;;24.81;60.01;101243.16;4974920;28;20468;-55
2022/07/09 08:54:02;;;;;;;0.40;0.30;;;;;;;25.05;60.94;101243.22;4980185;28;20524;-54
2022/07/09 08:56:29;;;;;;;0.40;0.20;;;;;;;25.24;59.79;101242.75;4970819;28;20455;-54
2022/07/09 08:58:55;;;;;;;0.40;0.20;;;;;;;25.65;57.98;101245.06;4973491;28;21007;-54
2022/07/09 09:01:21;;;;;;;0.40;0.20;;;;;;;25.70;58.43;101231.09;4974613;28;20497;-55
2022/07/09 09:03:48;;;;;;;0.40;0.20;;;;;;;25.48;57.91;101242.72;4961854;28;20546;-55
2022/07/09 09:06:15;;;;;;;0.50;0.50;;;;;;;25.44;58.22;101240.34;4962676;28;20829;-54
2022/07/09 09:08:43;;;;;;;0.40;0.20;;;;;;;25.72;57.22;101229.13;4973605;28;20474;-55
2022/07/09 09:11:20;;;;;;;0.40;0.20;;;;;;;25.68;57.35;101225.78;4974727;28;20436;-55
2022/07/09 09:13:48;;;;;;;0.40;0.20;;;;;;;25.79;56.98;101226.81;4974307;28;20456;-55
2022/07/09 09:16:17;;;;;;;0.40;0.20;;;;;;;25.91;55.34;101234.03;4974334;28;20547;-55
2022/07/09 09:18:48;;;;;;;0.40;0.20;;;;;;;26.01;56.60;101228.72;4973397;28;20485;-55
2022/07/09 09:21:18;;;;;;;0.40;0.20;;;;;;;26.46;55.67;101230.59;4974089;28;20485;-55
2022/07/09 09:23:47;;;;;;;0.40;0.20;;;;;;;26.48;55.23;101231.31;4973996;28;20829;-54
2022/07/09 09:26:22;;;;;;;0.40;0.20;;;;;;;26.39;55.57;101229.31;4974168;28;20469;-54
2022/07/09 09:28:51;;;;;;;0.40;0.20;;;;;;;26.18;54.55;101234.59;4974151;28;20470;-54
2022/07/09 09:31:24;;;;;;;0.50;0.30;;;;;;;26.92;54.38;101220.50;4973937;28;20543;-54
2022/07/09 09:33:53;;;;;;;0.73;0.70;;;;;;;26.70;54.12;101226.84;4974175;28;20446;-55
2022/07/09 09:36:32;;;;;;;0.40;0.20;;;;;;;26.81;53.05;101216.78;4960787;28;20494;-55
2022/07/09 09:39:16;;;;;;;0.40;0.20;;;;;;;26.72;53.70;101216.66;4973917;28;20517;-55
2022/07/09 09:41:47;;;;;;;0.40;0.30;;;;;;;26.63;52.45;101218.31;4973953;28;20493;-55
2022/07/09 09:44:19;;;;;;;0.40;0.20;;;;;;;26.38;52.75;101210.38;4973508;28;20450;-55
2022/07/09 09:46:47;;;;;;;0.40;0.20;;;;;;;25.89;54.27;101206.03;4973874;28;20471;-55
2022/07/09 09:49:15;;;;;;;0.40;0.20;;;;;;;25.97;53.54;101200.84;4974043;28;20450;-55
2022/07/09 09:51:54;;;;;;;0.40;0.20;;;;;;;26.41;53.85;101202.78;4974239;28;20862;-54
2022/07/09 09:54:21;;;;;;;0.40;0.30;;;;;;;26.57;51.18;101207.88;4981716;28;20445;-55
2022/07/09 09:56:49;;;;;;;0.40;0.30;;;;;;;26.34;52.66;101215.16;4965759;28;20455;-55
2022/07/09 09:59:16;;;;;;;0.40;0.20;;;;;;;26.16;53.39;101205.72;4973886;28;20461;-54
2022/07/09 10:01:44;;;;;;;0.40;0.20;;;;;;;25.94;54.06;101193.78;4971452;28;20870;-55
2022/07/09 10:04:12;;;;;;;0.40;0.23;;;;;;;26.36;52.83;101193.25;4963690;28;20450;-54
2022/07/09 10:06:41;;;;;;;0.50;0.40;;;;;;;26.52;51.87;101194.63;4970659;28;20510;-54
2022/07/09 10:09:11;;;;;;;0.40;0.20;;;;;;;26.66;51.75;101190.78;4964019;28;20483;-54
2022/07/09 10:11:46;;;;;;;0.40;0.20;;;;;;;26.42;52.21;101190.91;4971941;28;20454;-54
2022/07/09 10:14:24;;;;;;;0.40;0.30;;;;;;;26.54;51.68;101183.59;4973755;28;20488;-54
2022/07/09 10:16:52;;;;;;;0.40;0.20;;;;;;;26.87;49.89;101185.44;4959316;28;20462;-54
2022/07/09 10:19:29;;;;;;;0.40;0.20;;;;;;;26.99;48.26;101186.25;4973502;28;20542;-54
2022/07/09 10:21:58;;;;;;;0.40;0.20;;;;;;;27.38;47.20;101177.47;4973189;28;20485;-54
2022/07/09 10:24:27;;;;;;;0.40;0.20;;;;;;;27.47;46.51;101181.28;4961841;28;20936;-54
2022/07/09 10:27:11;;;;;;;0.40;0.30;;;;;;;27.11;47.58;101182.53;4973019;28;20809;-54
2022/07/09 10:29:57;;;;;;;0.40;0.30;;;;;;;27.80;47.81;101176.69;4959798;28;20458;-54
2022/07/09 10:32:30;;;;;;;0.40;0.30;;;;;;;27.03;48.86;101177.72;4972083;28;20453;-54
2022/07/09 10:35:01;;;;;;;0.40;0.20;;;;;;;26.96;50.56;101179.19;4957059;28;20467;-54
2022/07/09 10:37:32;;;;;;;0.40;0.20;;;;;;;26.82;50.22;101169.41;4969705;28;20445;-54
2022/07/09 10:40:09;;;;;;;0.40;0.20;;;;;;;26.22;50.85;101173.38;4972032;28;20467;-54
2022/07/09 10:42:36;;;;;;;0.40;0.20;;;;;;;26.12;52.14;101179.69;4968493;28;20474;-54
2022/07/09 10:45:04;;;;;;;0.40;0.30;;;;;;;26.48;51.61;101171.31;4965369;28;20834;-54
2022/07/09 10:47:38;;;;;;;0.40;0.27;;;;;;;27.03;49.78;101166.81;4973007;28;20489;-54
2022/07/09 10:50:05;;;;;;;0.40;0.30;;;;;;;27.24;49.15;101164.13;4973027;28;20451;-54
2022/07/09 10:52:32;;;;;;;0.40;0.20;;;;;;;27.02;49.33;101154.16;4966242;28;20465;-54
2022/07/09 10:54:58;;;;;;;0.40;0.20;;;;;;;27.18;48.92;101163.78;4971089;28;20444;-54
2022/07/09 10:57:25;;;;;;;0.40;0.20;;;;;;;27.19;48.90;101160.06;4968806;28;20482;-54
2022/07/09 10:59:51;;;;;;;0.40;0.30;;;;;;;27.38;48.40;101155.63;4973226;28;20458;-55
2022/07/09 11:02:21;;;;;;;0.40;0.30;;;;;;;27.53;48.35;101155.31;4972547;28;20496;-55
2022/07/09 11:04:50;;;;;;;0.40;0.30;;;;;;;27.98;47.49;101140.41;4972582;28;20830;-55
2022/07/09 11:07:22;;;;;;;0.40;0.30;;;;;;;27.01;46.90;101137.91;4972157;28;20485;-55
2022/07/09 11:09:49;;;;;;;0.40;0.20;;;;;;;26.83;47.25;101145.72;4972912;28;20450;-54
2022/07/09 11:12:17;;;;;;;0.40;0.20;;;;;;;26.90;47.70;101146.09;4973204;28;20447;-54
2022/07/09 11:14:47;;;;;;;0.40;0.20;;;;;;;26.96;46.95;101134.66;4972651;28;20480;-55
2022/07/09 11:17:16;;;;;;;0.40;0.20;;;;;;;26.75;47.63;101138.19;4972437;28;20847;-54
2022/07/09 11:19:42;;;;;;;0.40;0.20;;;;;;;26.83;46.94;101132.94;4959791;28;20456;-54
2022/07/09 11:22:09;;;;;;;0.40;0.20;;;;;;;26.77;45.76;101146.25;4972276;28;20501;-54
2022/07/09 11:24:36;;;;;;;0.40;0.30;;;;;;;26.99;44.95;101132.53;4972379;28;20456;-54
2022/07/09 11:27:07;;;;;;;0.40;0.20;;;;;;;27.12;44.44;101125.06;4972891;28;20466;-55